KSXS

Shell AHP Heliport

Fort Rucker, Alabama, USA
METAR KSXS 191036Z AUTO 00000KT 10SM FEW060 22/22 A2995 RMK AO2 SLPNO
Observed Flight Rules
Sep-19 @ 10:36 UTC (26 minutes ago) Visual Flight Rules
Visibility Clouds
10 miles
  • Few at 6,000' AGL
Temperatures Readings
Current 22°C / 72°F
Dewpoint 22°C / 72°F
Humidity 100%
Altimeter 29.95" Hg
Pressure 1014 hPa
Elevation 122
METAR KSXS 191036Z AUTO 00000KT 10SM FEW060 22/22 A2995 RMK AO2 SLPNO
Observed Flight Rules
Sep-19 @ 10:36 UTC
(26 minutes ago)
VFR
Clouds
  • Few at 6,000' AGL
Temperature Dewpoint
22°C / 72°F 22°C / 72°F
Humidity Altimeter Pressure
100% 29.95" Hg 1014 hPa